sensor_id;sensor_type;location;lat;lon;timestamp;P1;durP1;ratioP1;P2;durP2;ratioP2
63606;SDS011;71992;52.478;-1.918;2024-01-15T00:01:31;0.63;;;0.40;;
63606;SDS011;71992;52.478;-1.918;2024-01-15T00:04:01;0.40;;;0.40;;
63606;SDS011;71992;52.478;-1.918;2024-01-15T00:06:32;0.85;;;0.50;;
63606;SDS011;71992;52.478;-1.918;2024-01-15T00:09:03;0.45;;;0.40;;
63606;SDS011;71992;52.478;-1.918;2024-01-15T00:11:34;0.40;;;0.40;;
63606;SDS011;71992;52.478;-1.918;2024-01-15T00:14:05;1.45;;;0.50;;
63606;SDS011;71992;52.478;-1.918;2024-01-15T00:16:39;0.50;;;0.50;;
63606;SDS011;71992;52.478;-1.918;2024-01-15T00:19:10;0.43;;;0.43;;
63606;SDS011;71992;52.478;-1.918;2024-01-15T00:21:41;0.77;;;0.50;;
63606;SDS011;71992;52.478;-1.918;2024-01-15T00:24:12;0.40;;;0.40;;
63606;SDS011;71992;52.478;-1.918;2024-01-15T00:26:43;0.50;;;0.40;;
63606;SDS011;71992;52.478;-1.918;2024-01-15T00:29:14;1.15;;;0.60;;
63606;SDS011;71992;52.478;-1.918;2024-01-15T00:31:48;0.73;;;0.50;;
63606;SDS011;71992;52.478;-1.918;2024-01-15T00:34:19;0.40;;;0.40;;
63606;SDS011;71992;52.478;-1.918;2024-01-15T00:36:50;0.47;;;0.47;;
63606;SDS011;71992;52.478;-1.918;2024-01-15T00:39:21;0.52;;;0.52;;
63606;SDS011;71992;52.478;-1.918;2024-01-15T00:41:51;0.85;;;0.80;;
63606;SDS011;71992;52.478;-1.918;2024-01-15T00:44:22;0.40;;;0.40;;
63606;SDS011;71992;52.478;-1.918;2024-01-15T00:46:56;0.63;;;0.57;;
63606;SDS011;71992;52.478;-1.918;2024-01-15T00:49:29;0.35;;;0.35;;
63606;SDS011;71992;52.478;-1.918;2024-01-15T00:51:57;1.08;;;0.50;;
63606;SDS011;71992;52.478;-1.918;2024-01-15T00:54:28;2.15;;;0.50;;
63606;SDS011;71992;52.478;-1.918;2024-01-15T00:57:00;0.38;;;0.38;;
63606;SDS011;71992;52.478;-1.918;2024-01-15T00:59:33;0.60;;;0.40;;
63606;SDS011;71992;52.478;-1.918;2024-01-15T01:02:06;0.70;;;0.55;;
63606;SDS011;71992;52.478;-1.918;2024-01-15T01:04:41;0.55;;;0.50;;
63606;SDS011;71992;52.478;-1.918;2024-01-15T01:07:12;0.50;;;0.50;;
63606;SDS011;71992;52.478;-1.918;2024-01-15T01:09:43;0.40;;;0.40;;
63606;SDS011;71992;52.478;-1.918;2024-01-15T01:12:15;1.20;;;0.50;;
63606;SDS011;71992;52.478;-1.918;2024-01-15T01:14:44;0.40;;;0.40;;
63606;SDS011;71992;52.478;-1.918;2024-01-15T01:17:17;0.50;;;0.50;;
63606;SDS011;71992;52.478;-1.918;2024-01-15T01:19:49;0.40;;;0.40;;
63606;SDS011;71992;52.478;-1.918;2024-01-15T01:22:20;0.80;;;0.50;;
63606;SDS011;71992;52.478;-1.918;2024-01-15T01:24:50;0.55;;;0.40;;
63606;SDS011;71992;52.478;-1.918;2024-01-15T01:27:21;0.38;;;0.38;;
63606;SDS011;71992;52.478;-1.918;2024-01-15T01:29:52;1.95;;;0.50;;
63606;SDS011;71992;52.478;-1.918;2024-01-15T01:32:26;0.40;;;0.40;;
63606;SDS011;71992;52.478;-1.918;2024-01-15T01:34:57;0.98;;;0.50;;
63606;SDS011;71992;52.478;-1.918;2024-01-15T01:37:29;0.50;;;0.50;;
63606;SDS011;71992;52.478;-1.918;2024-01-15T01:40:01;0.52;;;0.43;;
63606;SDS011;71992;52.478;-1.918;2024-01-15T01:42:32;0.40;;;0.40;;
63606;SDS011;71992;52.478;-1.918;2024-01-15T01:45:04;0.55;;;0.40;;
63606;SDS011;71992;52.478;-1.918;2024-01-15T01:47:38;0.38;;;0.38;;
63606;SDS011;71992;52.478;-1.918;2024-01-15T01:50:10;0.47;;;0.40;;
63606;SDS011;71992;52.478;-1.918;2024-01-15T01:52:42;0.52;;;0.52;;
63606;SDS011;71992;52.478;-1.918;2024-01-15T01:55:16;0.40;;;0.40;;
63606;SDS011;71992;52.478;-1.918;2024-01-15T01:57:48;0.77;;;0.60;;
63606;SDS011;71992;52.478;-1.918;2024-01-15T02:00:19;0.43;;;0.43;;
63606;SDS011;71992;52.478;-1.918;2024-01-15T02:02:53;0.45;;;0.45;;
63606;SDS011;71992;52.478;-1.918;2024-01-15T02:05:24;0.63;;;0.40;;
63606;SDS011;71992;52.478;-1.918;2024-01-15T02:07:57;0.55;;;0.52;;
63606;SDS011;71992;52.478;-1.918;2024-01-15T02:10:28;1.08;;;0.50;;
63606;SDS011;71992;52.478;-1.918;2024-01-15T02:13:00;0.40;;;0.40;;
63606;SDS011;71992;52.478;-1.918;2024-01-15T02:15:33;1.02;;;0.60;;
63606;SDS011;71992;52.478;-1.918;2024-01-15T02:18:07;0.47;;;0.47;;
63606;SDS011;71992;52.478;-1.918;2024-01-15T02:20:39;0.40;;;0.40;;
63606;SDS011;71992;52.478;-1.918;2024-01-15T02:23:15;0.47;;;0.47;;
63606;SDS011;71992;52.478;-1.918;2024-01-15T02:25:46;0.40;;;0.40;;
63606;SDS011;71992;52.478;-1.918;2024-01-15T02:28:17;0.43;;;0.40;;
63606;SDS011;71992;52.478;-1.918;2024-01-15T02:30:48;0.63;;;0.50;;
63606;SDS011;71992;52.478;-1.918;2024-01-15T02:33:19;0.93;;;0.65;;
63606;SDS011;71992;52.478;-1.918;2024-01-15T02:35:58;0.38;;;0.38;;
63606;SDS011;71992;52.478;-1.918;2024-01-15T02:38:32;0.30;;;0.30;;
63606;SDS011;71992;52.478;-1.918;2024-01-15T02:41:03;0.40;;;0.40;;
63606;SDS011;71992;52.478;-1.918;2024-01-15T02:43:37;0.43;;;0.40;;
63606;SDS011;71992;52.478;-1.918;2024-01-15T02:46:09;0.50;;;0.50;;
63606;SDS011;71992;52.478;-1.918;2024-01-15T02:48:40;0.60;;;0.43;;
63606;SDS011;71992;52.478;-1.918;2024-01-15T02:51:11;0.50;;;0.50;;
63606;SDS011;71992;52.478;-1.918;2024-01-15T02:53:45;0.40;;;0.40;;
63606;SDS011;71992;52.478;-1.918;2024-01-15T02:56:16;0.40;;;0.40;;
63606;SDS011;71992;52.478;-1.918;2024-01-15T02:58:46;1.27;;;0.40;;
63606;SDS011;71992;52.478;-1.918;2024-01-15T03:01:18;0.40;;;0.40;;
63606;SDS011;71992;52.478;-1.918;2024-01-15T03:03:52;0.60;;;0.43;;
63606;SDS011;71992;52.478;-1.918;2024-01-15T03:06:32;0.40;;;0.40;;
63606;SDS011;71992;52.478;-1.918;2024-01-15T03:09:06;0.45;;;0.40;;
63606;SDS011;71992;52.478;-1.918;2024-01-15T03:11:38;0.35;;;0.35;;
63606;SDS011;71992;52.478;-1.918;2024-01-15T03:14:10;0.45;;;0.45;;
63606;SDS011;71992;52.478;-1.918;2024-01-15T03:16:41;0.40;;;0.40;;
63606;SDS011;71992;52.478;-1.918;2024-01-15T03:19:12;0.40;;;0.40;;
63606;SDS011;71992;52.478;-1.918;2024-01-15T03:21:43;0.50;;;0.40;;
63606;SDS011;71992;52.478;-1.918;2024-01-15T03:24:16;0.68;;;0.50;;
63606;SDS011;71992;52.478;-1.918;2024-01-15T03:26:47;0.30;;;0.30;;
63606;SDS011;71992;52.478;-1.918;2024-01-15T03:29:18;0.50;;;0.50;;
63606;SDS011;71992;52.478;-1.918;2024-01-15T03:31:51;0.40;;;0.40;;
63606;SDS011;71992;52.478;-1.918;2024-01-15T03:34:22;0.40;;;0.40;;
63606;SDS011;71992;52.478;-1.918;2024-01-15T03:36:54;0.50;;;0.50;;
63606;SDS011;71992;52.478;-1.918;2024-01-15T03:39:28;0.40;;;0.40;;
63606;SDS011;71992;52.478;-1.918;2024-01-15T03:42:03;1.08;;;0.50;;
63606;SDS011;71992;52.478;-1.918;2024-01-15T03:44:34;0.40;;;0.40;;
63606;SDS011;71992;52.478;-1.918;2024-01-15T03:47:05;0.52;;;0.47;;
63606;SDS011;71992;52.478;-1.918;2024-01-15T03:49:36;0.50;;;0.47;;
63606;SDS011;71992;52.478;-1.918;2024-01-15T03:52:07;0.47;;;0.45;;
63606;SDS011;71992;52.478;-1.918;2024-01-15T03:54:41;0.40;;;0.40;;
63606;SDS011;71992;52.478;-1.918;2024-01-15T03:57:11;0.43;;;0.43;;
63606;SDS011;71992;52.478;-1.918;2024-01-15T03:59:42;0.40;;;0.40;;
63606;SDS011;71992;52.478;-1.918;2024-01-15T04:02:16;0.40;;;0.40;;
63606;SDS011;71992;52.478;-1.918;2024-01-15T04:04:47;0.35;;;0.35;;
63606;SDS011;71992;52.478;-1.918;2024-01-15T04:07:18;1.27;;;0.52;;
63606;SDS011;71992;52.478;-1.918;2024-01-15T04:09:51;0.50;;;0.50;;
63606;SDS011;71992;52.478;-1.918;2024-01-15T04:12:22;0.30;;;0.30;;
63606;SDS011;71992;52.478;-1.918;2024-01-15T04:14:53;0.52;;;0.50;;
63606;SDS011;71992;52.478;-1.918;2024-01-15T04:17:24;0.45;;;0.45;;
63606;SDS011;71992;52.478;-1.918;2024-01-15T04:19:55;0.47;;;0.47;;
63606;SDS011;71992;52.478;-1.918;2024-01-15T04:22:26;0.70;;;0.30;;
63606;SDS011;71992;52.478;-1.918;2024-01-15T04:25:00;0.40;;;0.40;;
63606;SDS011;71992;52.478;-1.918;2024-01-15T04:27:30;0.60;;;0.50;;
63606;SDS011;71992;52.478;-1.918;2024-01-15T04:30:01;0.40;;;0.40;;
63606;SDS011;71992;52.478;-1.918;2024-01-15T04:32:35;0.40;;;0.40;;
63606;SDS011;71992;52.478;-1.918;2024-01-15T04:35:06;0.40;;;0.40;;
63606;SDS011;71992;52.478;-1.918;2024-01-15T04:37:37;0.30;;;0.30;;
63606;SDS011;71992;52.478;-1.918;2024-01-15T04:40:11;0.40;;;0.40;;
63606;SDS011;71992;52.478;-1.918;2024-01-15T04:42:42;0.85;;;0.50;;
63606;SDS011;71992;52.478;-1.918;2024-01-15T04:45:13;0.30;;;0.30;;
63606;SDS011;71992;52.478;-1.918;2024-01-15T04:47:47;0.40;;;0.40;;
63606;SDS011;71992;52.478;-1.918;2024-01-15T04:50:18;0.43;;;0.40;;
63606;SDS011;71992;52.478;-1.918;2024-01-15T04:52:49;0.50;;;0.50;;
63606;SDS011;71992;52.478;-1.918;2024-01-15T04:55:23;0.50;;;0.50;;
63606;SDS011;71992;52.478;-1.918;2024-01-15T04:57:53;0.45;;;0.45;;
63606;SDS011;71992;52.478;-1.918;2024-01-15T05:00:24;0.50;;;0.50;;
63606;SDS011;71992;52.478;-1.918;2024-01-15T05:02:55;0.63;;;0.50;;
63606;SDS011;71992;52.478;-1.918;2024-01-15T05:05:26;0.40;;;0.40;;
63606;SDS011;71992;52.478;-1.918;2024-01-15T05:07:57;0.63;;;0.40;;
63606;SDS011;71992;52.478;-1.918;2024-01-15T05:10:33;0.30;;;0.30;;
63606;SDS011;71992;52.478;-1.918;2024-01-15T05:13:04;0.40;;;0.40;;
63606;SDS011;71992;52.478;-1.918;2024-01-15T05:15:35;0.43;;;0.43;;
63606;SDS011;71992;52.478;-1.918;2024-01-15T05:18:06;0.40;;;0.40;;
63606;SDS011;71992;52.478;-1.918;2024-01-15T05:20:37;0.60;;;0.60;;
63606;SDS011;71992;52.478;-1.918;2024-01-15T05:23:10;0.50;;;0.50;;
63606;SDS011;71992;52.478;-1.918;2024-01-15T05:25:43;0.40;;;0.40;;
63606;SDS011;71992;52.478;-1.918;2024-01-15T05:28:15;0.40;;;0.40;;
63606;SDS011;71992;52.478;-1.918;2024-01-15T05:30:45;0.50;;;0.40;;
63606;SDS011;71992;52.478;-1.918;2024-01-15T05:33:18;0.75;;;0.52;;
63606;SDS011;71992;52.478;-1.918;2024-01-15T05:35:48;0.50;;;0.40;;
63606;SDS011;71992;52.478;-1.918;2024-01-15T05:38:21;0.60;;;0.40;;
63606;SDS011;71992;52.478;-1.918;2024-01-15T05:40:54;0.30;;;0.30;;
63606;SDS011;71992;52.478;-1.918;2024-01-15T05:43:25;0.30;;;0.30;;
63606;SDS011;71992;52.478;-1.918;2024-01-15T05:45:56;0.45;;;0.40;;
63606;SDS011;71992;52.478;-1.918;2024-01-15T05:48:27;0.85;;;0.65;;
63606;SDS011;71992;52.478;-1.918;2024-01-15T05:51:02;1.10;;;0.50;;
63606;SDS011;71992;52.478;-1.918;2024-01-15T05:53:33;0.65;;;0.50;;
63606;SDS011;71992;52.478;-1.918;2024-01-15T05:56:08;0.50;;;0.40;;
63606;SDS011;71992;52.478;-1.918;2024-01-15T05:58:43;0.60;;;0.40;;
63606;SDS011;71992;52.478;-1.918;2024-01-15T06:01:13;0.40;;;0.40;;
63606;SDS011;71992;52.478;-1.918;2024-01-15T06:03:44;0.40;;;0.40;;
63606;SDS011;71992;52.478;-1.918;2024-01-15T06:06:15;0.85;;;0.50;;
63606;SDS011;71992;52.478;-1.918;2024-01-15T06:08:47;0.50;;;0.50;;
63606;SDS011;71992;52.478;-1.918;2024-01-15T06:11:21;0.80;;;0.50;;
63606;SDS011;71992;52.478;-1.918;2024-01-15T06:13:52;0.95;;;0.40;;
63606;SDS011;71992;52.478;-1.918;2024-01-15T06:16:23;0.57;;;0.45;;
63606;SDS011;71992;52.478;-1.918;2024-01-15T06:18:54;0.40;;;0.40;;
63606;SDS011;71992;52.478;-1.918;2024-01-15T06:21:25;0.60;;;0.50;;
63606;SDS011;71992;52.478;-1.918;2024-01-15T06:23:58;0.68;;;0.52;;
63606;SDS011;71992;52.478;-1.918;2024-01-15T06:26:32;0.70;;;0.50;;
63606;SDS011;71992;52.478;-1.918;2024-01-15T06:29:04;0.70;;;0.70;;
63606;SDS011;71992;52.478;-1.918;2024-01-15T06:31:35;0.60;;;0.60;;
63606;SDS011;71992;52.478;-1.918;2024-01-15T06:34:05;0.57;;;0.50;;
63606;SDS011;71992;52.478;-1.918;2024-01-15T06:36:36;0.55;;;0.55;;
63606;SDS011;71992;52.478;-1.918;2024-01-15T06:39:07;0.40;;;0.40;;
63606;SDS011;71992;52.478;-1.918;2024-01-15T06:41:41;0.43;;;0.43;;
63606;SDS011;71992;52.478;-1.918;2024-01-15T06:44:15;0.68;;;0.50;;
63606;SDS011;71992;52.478;-1.918;2024-01-15T06:46:48;0.55;;;0.47;;
63606;SDS011;71992;52.478;-1.918;2024-01-15T06:49:19;0.47;;;0.40;;
63606;SDS011;71992;52.478;-1.918;2024-01-15T06:51:50;0.40;;;0.40;;
63606;SDS011;71992;52.478;-1.918;2024-01-15T06:54:21;0.50;;;0.40;;
63606;SDS011;71992;52.478;-1.918;2024-01-15T06:56:56;0.40;;;0.40;;
63606;SDS011;71992;52.478;-1.918;2024-01-15T06:59:27;1.83;;;0.50;;
63606;SDS011;71992;52.478;-1.918;2024-01-15T07:01:58;0.68;;;0.45;;
63606;SDS011;71992;52.478;-1.918;2024-01-15T07:04:30;0.95;;;0.60;;
63606;SDS011;71992;52.478;-1.918;2024-01-15T07:07:01;0.40;;;0.40;;
63606;SDS011;71992;52.478;-1.918;2024-01-15T07:09:34;0.77;;;0.60;;
63606;SDS011;71992;52.478;-1.918;2024-01-15T07:12:08;0.52;;;0.52;;
63606;SDS011;71992;52.478;-1.918;2024-01-15T07:14:39;0.50;;;0.50;;
63606;SDS011;71992;52.478;-1.918;2024-01-15T07:17:10;0.47;;;0.47;;
63606;SDS011;71992;52.478;-1.918;2024-01-15T07:19:41;0.70;;;0.55;;
63606;SDS011;71992;52.478;-1.918;2024-01-15T07:22:12;0.40;;;0.40;;
63606;SDS011;71992;52.478;-1.918;2024-01-15T07:24:44;0.40;;;0.40;;
63606;SDS011;71992;52.478;-1.918;2024-01-15T07:27:18;0.50;;;0.47;;
63606;SDS011;71992;52.478;-1.918;2024-01-15T07:29:49;0.40;;;0.40;;
63606;SDS011;71992;52.478;-1.918;2024-01-15T07:32:20;0.40;;;0.40;;
63606;SDS011;71992;52.478;-1.918;2024-01-15T07:34:50;0.75;;;0.40;;
63606;SDS011;71992;52.478;-1.918;2024-01-15T07:37:23;0.73;;;0.50;;
63606;SDS011;71992;52.478;-1.918;2024-01-15T07:39:53;0.47;;;0.47;;
63606;SDS011;71992;52.478;-1.918;2024-01-15T07:42:27;0.57;;;0.55;;
63606;SDS011;71992;52.478;-1.918;2024-01-15T07:45:00;0.47;;;0.43;;
63606;SDS011;71992;52.478;-1.918;2024-01-15T07:47:31;0.50;;;0.50;;
63606;SDS011;71992;52.478;-1.918;2024-01-15T07:50:05;0.63;;;0.50;;
63606;SDS011;71992;52.478;-1.918;2024-01-15T07:52:36;0.67;;;0.50;;
63606;SDS011;71992;52.478;-1.918;2024-01-15T07:55:09;0.65;;;0.50;;
63606;SDS011;71992;52.478;-1.918;2024-01-15T07:57:45;0.93;;;0.60;;
63606;SDS011;71992;52.478;-1.918;2024-01-15T08:00:17;0.50;;;0.50;;
63606;SDS011;71992;52.478;-1.918;2024-01-15T08:02:51;1.20;;;0.80;;
63606;SDS011;71992;52.478;-1.918;2024-01-15T08:05:21;2.38;;;0.90;;
63606;SDS011;71992;52.478;-1.918;2024-01-15T08:07:52;0.75;;;0.65;;
63606;SDS011;71992;52.478;-1.918;2024-01-15T08:10:23;1.40;;;1.00;;
63606;SDS011;71992;52.478;-1.918;2024-01-15T08:12:57;1.13;;;0.70;;
63606;SDS011;71992;52.478;-1.918;2024-01-15T08:15:28;0.50;;;0.50;;
63606;SDS011;71992;52.478;-1.918;2024-01-15T08:18:01;0.90;;;0.70;;
63606;SDS011;71992;52.478;-1.918;2024-01-15T08:20:32;0.55;;;0.50;;
63606;SDS011;71992;52.478;-1.918;2024-01-15T08:23:03;2.13;;;1.10;;
63606;SDS011;71992;52.478;-1.918;2024-01-15T08:25:34;2.00;;;1.08;;
63606;SDS011;71992;52.478;-1.918;2024-01-15T08:28:08;1.75;;;1.23;;
63606;SDS011;71992;52.478;-1.918;2024-01-15T08:30:39;3.60;;;1.30;;
63606;SDS011;71992;52.478;-1.918;2024-01-15T08:33:10;2.67;;;1.30;;
63606;SDS011;71992;52.478;-1.918;2024-01-15T08:35:41;1.85;;;1.10;;
63606;SDS011;71992;52.478;-1.918;2024-01-15T08:38:12;2.17;;;0.90;;
63606;SDS011;71992;52.478;-1.918;2024-01-15T08:40:43;0.88;;;0.80;;
63606;SDS011;71992;52.478;-1.918;2024-01-15T08:43:20;0.73;;;0.70;;
63606;SDS011;71992;52.478;-1.918;2024-01-15T08:45:51;0.80;;;0.70;;
63606;SDS011;71992;52.478;-1.918;2024-01-15T08:48:22;1.65;;;0.93;;
63606;SDS011;71992;52.478;-1.918;2024-01-15T08:50:54;0.95;;;0.80;;
63606;SDS011;71992;52.478;-1.918;2024-01-15T08:53:26;1.38;;;0.98;;
63606;SDS011;71992;52.478;-1.918;2024-01-15T08:55:56;1.45;;;0.90;;
63606;SDS011;71992;52.478;-1.918;2024-01-15T08:58:30;0.80;;;0.80;;
63606;SDS011;71992;52.478;-1.918;2024-01-15T09:01:01;1.05;;;0.73;;
63606;SDS011;71992;52.478;-1.918;2024-01-15T09:03:34;0.60;;;0.60;;
63606;SDS011;71992;52.478;-1.918;2024-01-15T09:06:08;1.73;;;0.60;;
63606;SDS011;71992;52.478;-1.918;2024-01-15T09:08:39;1.63;;;0.60;;
63606;SDS011;71992;52.478;-1.918;2024-01-15T09:11:10;1.08;;;0.60;;
63606;SDS011;71992;52.478;-1.918;2024-01-15T09:13:45;0.60;;;0.50;;
63606;SDS011;71992;52.478;-1.918;2024-01-15T09:16:16;0.90;;;0.68;;
63606;SDS011;71992;52.478;-1.918;2024-01-15T09:18:47;0.50;;;0.50;;
63606;SDS011;71992;52.478;-1.918;2024-01-15T09:21:18;1.55;;;0.70;;
63606;SDS011;71992;52.478;-1.918;2024-01-15T09:23:49;1.00;;;0.47;;
63606;SDS011;71992;52.478;-1.918;2024-01-15T09:26:20;1.52;;;0.50;;
63606;SDS011;71992;52.478;-1.918;2024-01-15T09:28:54;0.90;;;0.55;;
63606;SDS011;71992;52.478;-1.918;2024-01-15T09:31:26;0.40;;;0.40;;
63606;SDS011;71992;52.478;-1.918;2024-01-15T09:33:58;0.47;;;0.40;;
63606;SDS011;71992;52.478;-1.918;2024-01-15T09:36:29;0.82;;;0.50;;
63606;SDS011;71992;52.478;-1.918;2024-01-15T09:39:01;1.08;;;0.45;;
63606;SDS011;71992;52.478;-1.918;2024-01-15T09:41:35;0.98;;;0.50;;
63606;SDS011;71992;52.478;-1.918;2024-01-15T09:44:09;1.08;;;0.50;;
63606;SDS011;71992;52.478;-1.918;2024-01-15T09:46:42;0.40;;;0.40;;
63606;SDS011;71992;52.478;-1.918;2024-01-15T09:49:13;0.85;;;0.50;;
63606;SDS011;71992;52.478;-1.918;2024-01-15T09:51:45;0.57;;;0.50;;
63606;SDS011;71992;52.478;-1.918;2024-01-15T09:54:17;0.53;;;0.40;;
63606;SDS011;71992;52.478;-1.918;2024-01-15T09:56:48;1.05;;;0.63;;
63606;SDS011;71992;52.478;-1.918;2024-01-15T09:59:22;0.40;;;0.40;;
63606;SDS011;71992;52.478;-1.918;2024-01-15T10:01:56;0.50;;;0.43;;
63606;SDS011;71992;52.478;-1.918;2024-01-15T10:04:29;0.52;;;0.43;;
63606;SDS011;71992;52.478;-1.918;2024-01-15T10:07:00;0.50;;;0.50;;
63606;SDS011;71992;52.478;-1.918;2024-01-15T10:09:31;0.50;;;0.50;;
63606;SDS011;71992;52.478;-1.918;2024-01-15T10:12:02;0.85;;;0.40;;
63606;SDS011;71992;52.478;-1.918;2024-01-15T10:14:37;0.50;;;0.50;;
63606;SDS011;71992;52.478;-1.918;2024-01-15T10:17:11;0.80;;;0.50;;
63606;SDS011;71992;52.478;-1.918;2024-01-15T10:19:48;0.50;;;0.50;;
63606;SDS011;71992;52.478;-1.918;2024-01-15T10:22:22;0.93;;;0.50;;
63606;SDS011;71992;52.478;-1.918;2024-01-15T10:24:53;1.17;;;0.45;;
63606;SDS011;71992;52.478;-1.918;2024-01-15T10:27:24;0.50;;;0.50;;
63606;SDS011;71992;52.478;-1.918;2024-01-15T10:29:57;0.50;;;0.50;;
63606;SDS011;71992;52.478;-1.918;2024-01-15T10:32:30;1.77;;;0.40;;
63606;SDS011;71992;52.478;-1.918;2024-01-15T10:35:01;0.40;;;0.40;;
63606;SDS011;71992;52.478;-1.918;2024-01-15T10:37:37;0.75;;;0.75;;
63606;SDS011;71992;52.478;-1.918;2024-01-15T10:40:08;0.50;;;0.50;;
63606;SDS011;71992;52.478;-1.918;2024-01-15T10:42:41;0.40;;;0.40;;
63606;SDS011;71992;52.478;-1.918;2024-01-15T10:50:20;0.40;;;0.40;;
63606;SDS011;71992;52.478;-1.918;2024-01-15T10:52:52;0.30;;;0.30;;
63606;SDS011;71992;52.478;-1.918;2024-01-15T10:55:25;0.30;;;0.30;;
63606;SDS011;71992;52.478;-1.918;2024-01-15T10:57:56;0.30;;;0.30;;
63606;SDS011;71992;52.478;-1.918;2024-01-15T11:00:30;0.73;;;0.50;;
63606;SDS011;71992;52.478;-1.918;2024-01-15T11:03:01;0.57;;;0.57;;
63606;SDS011;71992;52.478;-1.918;2024-01-15T11:05:34;0.50;;;0.47;;
63606;SDS011;71992;52.478;-1.918;2024-01-15T11:08:07;0.57;;;0.40;;
63606;SDS011;71992;52.478;-1.918;2024-01-15T11:10:39;0.40;;;0.40;;
63606;SDS011;71992;52.478;-1.918;2024-01-15T11:13:14;0.40;;;0.40;;
63606;SDS011;71992;52.478;-1.918;2024-01-15T11:15:57;0.43;;;0.43;;
63606;SDS011;71992;52.478;-1.918;2024-01-15T11:18:30;0.40;;;0.40;;
63606;SDS011;71992;52.478;-1.918;2024-01-15T11:23:59;0.30;;;0.30;;
63606;SDS011;71992;52.478;-1.918;2024-01-15T11:26:36;0.40;;;0.40;;
63606;SDS011;71992;52.478;-1.918;2024-01-15T11:29:09;0.50;;;0.50;;
63606;SDS011;71992;52.478;-1.918;2024-01-15T11:32:02;0.70;;;0.50;;
63606;SDS011;71992;52.478;-1.918;2024-01-15T11:37:26;0.50;;;0.45;;
63606;SDS011;71992;52.478;-1.918;2024-01-15T11:40:00;0.30;;;0.30;;
63606;SDS011;71992;52.478;-1.918;2024-01-15T11:42:38;0.43;;;0.43;;
63606;SDS011;71992;52.478;-1.918;2024-01-15T11:45:08;0.40;;;0.40;;
63606;SDS011;71992;52.478;-1.918;2024-01-15T11:47:56;0.43;;;0.43;;
63606;SDS011;71992;52.478;-1.918;2024-01-15T11:50:43;0.40;;;0.40;;
63606;SDS011;71992;52.478;-1.918;2024-01-15T11:53:17;0.45;;;0.40;;
63606;SDS011;71992;52.478;-1.918;2024-01-15T11:55:57;0.40;;;0.40;;
63606;SDS011;71992;52.478;-1.918;2024-01-15T11:58:29;0.32;;;0.32;;
63606;SDS011;71992;52.478;-1.918;2024-01-15T12:01:04;1.30;;;0.57;;
63606;SDS011;71992;52.478;-1.918;2024-01-15T12:03:39;0.50;;;0.43;;
63606;SDS011;71992;52.478;-1.918;2024-01-15T12:06:10;0.40;;;0.40;;
63606;SDS011;71992;52.478;-1.918;2024-01-15T12:08:41;0.30;;;0.30;;
63606;SDS011;71992;52.478;-1.918;2024-01-15T12:11:13;0.40;;;0.40;;
63606;SDS011;71992;52.478;-1.918;2024-01-15T12:13:46;0.40;;;0.40;;
63606;SDS011;71992;52.478;-1.918;2024-01-15T12:16:17;0.82;;;0.40;;
63606;SDS011;71992;52.478;-1.918;2024-01-15T12:18:53;0.40;;;0.40;;
63606;SDS011;71992;52.478;-1.918;2024-01-15T12:21:26;0.25;;;0.25;;
63606;SDS011;71992;52.478;-1.918;2024-01-15T12:23:57;0.40;;;0.40;;
63606;SDS011;71992;52.478;-1.918;2024-01-15T12:26:28;0.70;;;0.50;;
63606;SDS011;71992;52.478;-1.918;2024-01-15T12:29:02;1.27;;;0.40;;
63606;SDS011;71992;52.478;-1.918;2024-01-15T12:31:38;0.40;;;0.40;;
63606;SDS011;71992;52.478;-1.918;2024-01-15T12:36:44;0.30;;;0.30;;
63606;SDS011;71992;52.478;-1.918;2024-01-15T12:39:24;0.30;;;0.30;;
63606;SDS011;71992;52.478;-1.918;2024-01-15T12:41:55;0.40;;;0.40;;
63606;SDS011;71992;52.478;-1.918;2024-01-15T12:44:26;0.30;;;0.30;;
63606;SDS011;71992;52.478;-1.918;2024-01-15T12:47:00;0.40;;;0.40;;
63606;SDS011;71992;52.478;-1.918;2024-01-15T12:49:34;0.57;;;0.50;;
63606;SDS011;71992;52.478;-1.918;2024-01-15T12:52:08;0.90;;;0.45;;
63606;SDS011;71992;52.478;-1.918;2024-01-15T12:54:39;0.40;;;0.40;;
63606;SDS011;71992;52.478;-1.918;2024-01-15T12:57:10;0.45;;;0.40;;
63606;SDS011;71992;52.478;-1.918;2024-01-15T12:59:41;0.47;;;0.40;;
63606;SDS011;71992;52.478;-1.918;2024-01-15T13:02:16;0.40;;;0.40;;
63606;SDS011;71992;52.478;-1.918;2024-01-15T13:04:49;0.50;;;0.50;;
63606;SDS011;71992;52.478;-1.918;2024-01-15T13:07:21;0.43;;;0.43;;
63606;SDS011;71992;52.478;-1.918;2024-01-15T13:09:52;0.50;;;0.50;;
63606;SDS011;71992;52.478;-1.918;2024-01-15T13:12:23;0.40;;;0.40;;
63606;SDS011;71992;52.478;-1.918;2024-01-15T13:14:54;0.40;;;0.40;;
63606;SDS011;71992;52.478;-1.918;2024-01-15T13:17:25;0.40;;;0.40;;
63606;SDS011;71992;52.478;-1.918;2024-01-15T13:19:59;0.30;;;0.30;;
63606;SDS011;71992;52.478;-1.918;2024-01-15T13:22:30;0.77;;;0.60;;
63606;SDS011;71992;52.478;-1.918;2024-01-15T13:25:01;0.50;;;0.50;;
63606;SDS011;71992;52.478;-1.918;2024-01-15T13:27:34;0.88;;;0.50;;
63606;SDS011;71992;52.478;-1.918;2024-01-15T13:30:06;0.30;;;0.30;;
63606;SDS011;71992;52.478;-1.918;2024-01-15T13:32:38;0.60;;;0.50;;
63606;SDS011;71992;52.478;-1.918;2024-01-15T13:35:11;0.52;;;0.50;;
63606;SDS011;71992;52.478;-1.918;2024-01-15T13:37:42;0.45;;;0.45;;
63606;SDS011;71992;52.478;-1.918;2024-01-15T13:40:13;0.60;;;0.52;;
63606;SDS011;71992;52.478;-1.918;2024-01-15T13:42:47;1.00;;;0.70;;
63606;SDS011;71992;52.478;-1.918;2024-01-15T13:45:19;0.57;;;0.50;;
63606;SDS011;71992;52.478;-1.918;2024-01-15T13:47:51;0.70;;;0.50;;
63606;SDS011;71992;52.478;-1.918;2024-01-15T13:50:24;0.40;;;0.40;;
63606;SDS011;71992;52.478;-1.918;2024-01-15T13:52:56;0.60;;;0.40;;
63606;SDS011;71992;52.478;-1.918;2024-01-15T13:55:27;0.50;;;0.50;;
63606;SDS011;71992;52.478;-1.918;2024-01-15T13:57:58;0.38;;;0.38;;
63606;SDS011;71992;52.478;-1.918;2024-01-15T14:00:31;0.40;;;0.40;;
63606;SDS011;71992;52.478;-1.918;2024-01-15T14:05:39;0.30;;;0.30;;
63606;SDS011;71992;52.478;-1.918;2024-01-15T14:08:10;0.30;;;0.30;;
63606;SDS011;71992;52.478;-1.918;2024-01-15T14:10:41;0.40;;;0.40;;
63606;SDS011;71992;52.478;-1.918;2024-01-15T14:13:12;0.60;;;0.45;;
63606;SDS011;71992;52.478;-1.918;2024-01-15T14:15:43;0.82;;;0.50;;
63606;SDS011;71992;52.478;-1.918;2024-01-15T14:18:16;0.43;;;0.40;;
63606;SDS011;71992;52.478;-1.918;2024-01-15T14:20:50;0.82;;;0.57;;
63606;SDS011;71992;52.478;-1.918;2024-01-15T14:23:20;0.82;;;0.40;;
63606;SDS011;71992;52.478;-1.918;2024-01-15T14:25:52;0.40;;;0.40;;
63606;SDS011;71992;52.478;-1.918;2024-01-15T14:28:23;0.52;;;0.40;;
63606;SDS011;71992;52.478;-1.918;2024-01-15T14:30:58;0.40;;;0.40;;
63606;SDS011;71992;52.478;-1.918;2024-01-15T14:33:30;0.40;;;0.40;;
63606;SDS011;71992;52.478;-1.918;2024-01-15T14:36:05;0.30;;;0.30;;
63606;SDS011;71992;52.478;-1.918;2024-01-15T14:38:36;0.40;;;0.40;;
63606;SDS011;71992;52.478;-1.918;2024-01-15T14:41:08;0.40;;;0.40;;
63606;SDS011;71992;52.478;-1.918;2024-01-15T14:43:45;0.70;;;0.60;;
63606;SDS011;71992;52.478;-1.918;2024-01-15T14:46:24;0.93;;;0.80;;
63606;SDS011;71992;52.478;-1.918;2024-01-15T14:48:55;1.15;;;0.68;;
63606;SDS011;71992;52.478;-1.918;2024-01-15T14:54:02;1.33;;;0.68;;
63606;SDS011;71992;52.478;-1.918;2024-01-15T14:56:34;0.80;;;0.60;;
63606;SDS011;71992;52.478;-1.918;2024-01-15T14:59:05;0.93;;;0.73;;
63606;SDS011;71992;52.478;-1.918;2024-01-15T15:01:36;0.50;;;0.50;;
63606;SDS011;71992;52.478;-1.918;2024-01-15T15:04:07;0.93;;;0.70;;
63606;SDS011;71992;52.478;-1.918;2024-01-15T15:06:43;0.70;;;0.70;;
63606;SDS011;71992;52.478;-1.918;2024-01-15T15:09:14;0.50;;;0.50;;
63606;SDS011;71992;52.478;-1.918;2024-01-15T15:11:45;0.80;;;0.52;;
63606;SDS011;71992;52.478;-1.918;2024-01-15T15:14:16;0.95;;;0.70;;
63606;SDS011;71992;52.478;-1.918;2024-01-15T15:16:47;0.55;;;0.40;;
63606;SDS011;71992;52.478;-1.918;2024-01-15T15:19:18;0.60;;;0.60;;
63606;SDS011;71992;52.478;-1.918;2024-01-15T15:21:51;0.57;;;0.50;;